Time;durP1;ratioP1;P1;durP2;ratioP2;P2;SDS_P1;SDS_P2;PMS_P1;PMS_P2;Temp;Humidity;BMP_temperature;BMP_pressure;BME280_temperature;BME280_humidity;BME280_pressure;Samples;Min_cycle;Max_cycle;Signal;HPM_P1;HPM_P2
2021/12/03 00:01:03;;;;;;;17.67;4.77;;;-0.90;97.30;;;;;;4956034;28;20435;-87
2021/12/03 00:03:28;;;;;;;12.07;3.80;;;-0.90;97.30;;;;;;4954872;29;20275;-87
2021/12/03 00:05:56;;;;;;;13.47;4.10;;;-1.00;97.30;;;;;;4954340;29;20507;-87
2021/12/03 00:08:23;;;;;;;6.13;3.17;;;-1.00;97.30;;;;;;4954230;29;20609;-88
2021/12/03 00:10:54;;;;;;;8.20;3.60;;;-1.00;97.30;;;;;;4955602;28;20465;-87
2021/12/03 00:13:21;;;;;;;7.20;3.50;;;-1.00;97.30;;;;;;4954624;29;20502;-88
2021/12/03 00:15:48;;;;;;;10.47;3.67;;;-1.00;97.30;;;;;;4954457;29;20427;-87
2021/12/03 00:18:13;;;;;;;8.27;3.53;;;-1.00;97.30;;;;;;4954458;29;20505;-88
2021/12/03 00:20:39;;;;;;;6.80;3.63;;;-1.00;97.30;;;;;;4954330;28;20533;-87
2021/12/03 00:23:06;;;;;;;10.87;4.10;;;-1.00;97.30;;;;;;4954371;29;20179;-88
2021/12/03 00:25:32;;;;;;;7.60;3.90;;;-1.00;97.30;;;;;;4954352;29;20419;-87
2021/12/03 00:27:58;;;;;;;10.17;3.73;;;-1.10;97.30;;;;;;4950679;29;20521;-87
2021/12/03 00:30:24;;;;;;;9.73;4.27;;;-1.10;97.30;;;;;;4951111;28;20546;-87
2021/12/03 00:32:50;;;;;;;16.07;4.67;;;-1.10;97.30;;;;;;4951397;29;20178;-88
2021/12/03 00:35:17;;;;;;;9.03;3.30;;;-1.20;97.30;;;;;;4951388;29;20414;-88
2021/12/03 00:37:47;;;;;;;11.30;4.50;;;-1.20;97.30;;;;;;4951639;29;21096;-87
2021/12/03 00:40:17;;;;;;;17.00;4.37;;;-1.20;97.30;;;;;;4952674;28;20422;-87
2021/12/03 00:42:42;;;;;;;19.17;6.50;;;-1.20;97.30;;;;;;4951023;29;20820;-87
2021/12/03 00:45:10;;;;;;;13.33;3.33;;;-1.20;97.30;;;;;;4952562;28;20434;-88
2021/12/03 00:47:36;;;;;;;11.57;3.63;;;-1.20;97.30;;;;;;4950870;29;20736;-87
2021/12/03 00:50:03;;;;;;;5.90;3.30;;;-1.20;97.30;;;;;;4952203;28;20419;-87
2021/12/03 00:52:28;;;;;;;10.60;3.47;;;-1.30;97.30;;;;;;4951047;29;20183;-87
2021/12/03 00:54:54;;;;;;;7.13;3.10;;;-1.30;97.30;;;;;;4951105;29;20574;-87
2021/12/03 00:57:19;;;;;;;6.00;3.07;;;-1.30;97.30;;;;;;4956091;28;20176;-87
2021/12/03 00:59:45;;;;;;;8.87;3.27;;;-1.30;97.30;;;;;;4947009;28;20558;-87
2021/12/03 01:02:10;;;;;;;10.23;3.73;;;-1.30;97.30;;;;;;4934257;29;20259;-87
2021/12/03 01:04:36;;;;;;;11.17;3.70;;;-1.30;97.30;;;;;;4934292;29;20247;-87
2021/12/03 01:07:02;;;;;;;13.77;3.83;;;-1.30;97.30;;;;;;4934383;29;20230;-88
2021/12/03 01:09:27;;;;;;;14.83;4.60;;;-1.30;97.30;;;;;;4934067;29;20180;-87
2021/12/03 01:11:53;;;;;;;11.23;3.70;;;-1.30;97.30;;;;;;4934303;29;21235;-87
2021/12/03 01:14:19;;;;;;;10.23;4.10;;;-1.30;97.30;;;;;;4935344;29;20211;-87
2021/12/03 01:16:46;;;;;;;7.63;3.93;;;-1.30;97.30;;;;;;4954352;29;20418;-87
2021/12/03 01:19:11;;;;;;;13.10;3.73;;;-1.30;97.30;;;;;;4953338;29;20449;-88
2021/12/03 01:21:38;;;;;;;9.03;4.63;;;-1.30;97.30;;;;;;4953213;29;20474;-88
2021/12/03 01:24:04;;;;;;;10.03;4.67;;;-1.30;97.30;;;;;;4954201;29;20618;-87
2021/12/03 01:26:30;;;;;;;9.30;4.53;;;-1.30;97.30;;;;;;4953194;29;20423;-87
2021/12/03 01:28:55;;;;;;;13.57;5.40;;;-1.30;97.30;;;;;;4952947;29;20433;-88
2021/12/03 01:31:21;;;;;;;11.70;4.20;;;-1.30;97.30;;;;;;4952929;29;20207;-87
2021/12/03 01:33:47;;;;;;;9.47;4.27;;;-1.30;97.30;;;;;;4954222;29;20262;-87
2021/12/03 01:36:13;;;;;;;10.53;4.40;;;-1.20;97.30;;;;;;4952806;29;20175;-87
2021/12/03 01:38:39;;;;;;;6.20;3.50;;;-1.20;97.30;;;;;;4953842;29;20856;-87
2021/12/03 01:41:05;;;;;;;10.77;4.50;;;-1.20;97.30;;;;;;4952821;29;20493;-87
2021/12/03 01:43:31;;;;;;;9.97;4.27;;;-1.20;97.30;;;;;;4953935;29;20190;-87
2021/12/03 01:46:03;;;;;;;11.70;4.40;;;-1.20;97.30;;;;;;4953860;29;20208;-87
2021/12/03 01:48:30;;;;;;;7.50;3.83;;;-1.20;97.30;;;;;;4952841;29;20909;-87
2021/12/03 01:50:56;;;;;;;11.10;3.70;;;-1.20;97.30;;;;;;4953808;29;20474;-88
2021/12/03 01:53:25;;;;;;;14.70;5.03;;;-1.20;97.30;;;;;;4952313;29;20429;-87
2021/12/03 01:55:53;;;;;;;11.57;4.43;;;-1.20;97.30;;;;;;4952703;29;20829;-87
2021/12/03 01:58:19;;;;;;;13.33;4.37;;;-1.20;97.30;;;;;;4952926;29;20415;-87
2021/12/03 02:00:51;;;;;;;8.47;3.93;;;-1.20;97.30;;;;;;4953456;29;20453;-87
2021/12/03 02:03:19;;;;;;;14.73;4.80;;;-1.20;97.30;;;;;;4952004;29;20423;-87
2021/12/03 02:05:45;;;;;;;10.67;4.30;;;-1.20;97.30;;;;;;4952456;29;20442;-87
2021/12/03 02:08:12;;;;;;;14.53;5.20;;;-1.20;97.30;;;;;;4951990;29;20502;-88
2021/12/03 02:10:39;;;;;;;10.13;4.13;;;-1.20;97.30;;;;;;4952796;29;20561;-87
2021/12/03 02:13:05;;;;;;;6.20;3.67;;;-1.30;97.30;;;;;;4952763;29;20427;-87
2021/12/03 02:15:31;;;;;;;6.83;3.90;;;-1.30;97.30;;;;;;4952775;29;20426;-87
2021/12/03 02:17:57;;;;;;;14.63;4.70;;;-1.30;97.30;;;;;;4955015;28;20269;-87
2021/12/03 02:20:22;;;;;;;9.43;4.00;;;-1.30;97.30;;;;;;4956572;29;20342;-87
2021/12/03 02:22:49;;;;;;;14.60;3.60;;;-1.30;97.30;;;;;;4956477;29;20217;-87
2021/12/03 02:25:20;;;;;;;8.00;4.23;;;-1.30;97.30;;;;;;4956537;29;20175;-87
2021/12/03 02:27:47;;;;;;;9.00;4.00;;;-1.30;97.30;;;;;;4956297;29;20410;-88
2021/12/03 02:30:12;;;;;;;7.03;4.10;;;-1.30;97.30;;;;;;4956095;29;20458;-87
2021/12/03 02:32:38;;;;;;;10.60;3.97;;;-1.30;97.30;;;;;;4956074;29;20527;-87
2021/12/03 02:35:04;;;;;;;7.00;3.50;;;-1.20;97.30;;;;;;4956347;29;20545;-87
2021/12/03 02:37:30;;;;;;;9.07;4.27;;;-1.30;97.30;;;;;;4956101;29;20184;-87
2021/12/03 02:39:55;;;;;;;8.20;4.37;;;-1.30;97.30;;;;;;4956222;29;20921;-87
2021/12/03 02:42:21;;;;;;;7.40;4.27;;;-1.30;97.30;;;;;;4956140;29;20185;-87
2021/12/03 02:44:47;;;;;;;12.77;4.33;;;-1.30;97.30;;;;;;4956239;29;20179;-87
2021/12/03 02:47:12;;;;;;;9.57;4.27;;;-1.30;97.30;;;;;;4956164;29;20313;-87
2021/12/03 02:49:40;;;;;;;10.13;4.43;;;-1.30;97.30;;;;;;4956335;29;20279;-87
2021/12/03 02:52:06;;;;;;;7.67;3.70;;;-1.30;97.30;;;;;;4955845;29;20207;-87
2021/12/03 02:54:32;;;;;;;7.03;3.63;;;-1.30;97.30;;;;;;4956037;29;20415;-87
2021/12/03 02:56:58;;;;;;;10.07;3.80;;;-1.30;97.30;;;;;;4956002;29;20795;-87
2021/12/03 02:59:23;;;;;;;11.00;4.10;;;-1.30;97.30;;;;;;4955944;29;20167;-87
2021/12/03 03:01:49;;;;;;;10.00;4.63;;;-1.30;97.30;;;;;;4955424;29;20219;-87
2021/12/03 03:04:14;;;;;;;11.00;4.13;;;-1.30;97.30;;;;;;4955826;29;20190;-87
2021/12/03 03:06:40;;;;;;;6.27;3.53;;;-1.30;97.30;;;;;;4955703;29;20235;-87
2021/12/03 03:09:09;;;;;;;8.23;3.87;;;-1.30;97.30;;;;;;4955601;29;20183;-88
2021/12/03 03:11:35;;;;;;;9.40;3.77;;;-1.30;97.30;;;;;;4955491;29;20269;-87
2021/12/03 03:14:01;;;;;;;6.43;3.80;;;-1.30;97.30;;;;;;4956758;29;20934;-87
2021/12/03 03:16:27;;;;;;;14.23;4.63;;;-1.20;97.30;;;;;;4955730;29;20713;-87
2021/12/03 03:18:52;;;;;;;9.93;4.20;;;-1.20;97.30;;;;;;4955342;29;20175;-87
2021/12/03 03:21:18;;;;;;;6.87;3.00;;;-1.20;97.30;;;;;;4954970;29;20505;-87
2021/12/03 03:23:44;;;;;;;8.17;3.00;;;-1.20;97.30;;;;;;4954945;29;20190;-87
2021/12/03 03:26:10;;;;;;;8.83;3.77;;;-1.20;97.30;;;;;;4955489;29;20434;-87
2021/12/03 03:28:37;;;;;;;4.07;2.77;;;-1.20;97.30;;;;;;4956220;28;20458;-87
2021/12/03 03:31:03;;;;;;;9.87;3.30;;;-1.20;97.30;;;;;;4955331;29;20302;-87
2021/12/03 03:33:28;;;;;;;6.30;3.00;;;-1.20;97.30;;;;;;4955499;29;20534;-87
2021/12/03 03:35:54;;;;;;;8.50;3.67;;;-1.10;97.30;;;;;;4956453;29;20449;-87
2021/12/03 03:38:20;;;;;;;9.33;3.90;;;-1.10;97.30;;;;;;4956091;29;20187;-87
2021/12/03 03:40:47;;;;;;;20.17;5.07;;;-1.10;97.30;;;;;;4956284;28;20620;-87
2021/12/03 03:43:13;;;;;;;6.30;4.13;;;-1.10;97.30;;;;;;4956338;29;20419;-87
2021/12/03 03:45:40;;;;;;;7.83;3.47;;;-1.10;97.30;;;;;;4955258;29;20490;-87
2021/12/03 03:48:05;;;;;;;6.53;3.10;;;-1.00;97.30;;;;;;4954759;29;20234;-87
2021/12/03 03:50:31;;;;;;;8.30;2.70;;;-1.10;97.30;;;;;;4955962;28;21023;-87
2021/12/03 03:52:57;;;;;;;9.47;3.57;;;-1.00;97.30;;;;;;4955006;29;20205;-87
2021/12/03 03:55:23;;;;;;;4.27;2.47;;;-1.00;97.30;;;;;;4954895;29;20175;-87
2021/12/03 03:57:50;;;;;;;6.90;2.90;;;-1.00;97.30;;;;;;4954728;29;20562;-87
2021/12/03 04:00:22;;;;;;;7.93;3.67;;;-1.00;97.30;;;;;;4954681;28;20431;-87
2021/12/03 04:02:48;;;;;;;14.00;4.13;;;-1.00;97.30;;;;;;4954763;29;20411;-87
2021/12/03 04:05:14;;;;;;;9.30;3.03;;;-1.00;97.30;;;;;;4954814;29;20429;-87
2021/12/03 04:07:40;;;;;;;7.37;3.10;;;-1.00;97.30;;;;;;4954361;29;20183;-87
2021/12/03 04:10:07;;;;;;;10.17;3.57;;;-1.00;97.30;;;;;;4954313;28;20465;-87
2021/12/03 04:12:33;;;;;;;7.00;3.37;;;-1.00;97.30;;;;;;4955446;29;20426;-88
2021/12/03 04:14:59;;;;;;;13.00;3.07;;;-1.10;97.30;;;;;;4954511;29;20414;-87
2021/12/03 04:17:25;;;;;;;5.87;3.10;;;-1.10;97.30;;;;;;4935328;29;20419;-87
2021/12/03 04:19:50;;;;;;;5.10;3.27;;;-1.10;97.30;;;;;;4936305;29;20179;-87
2021/12/03 04:22:18;;;;;;;9.20;3.20;;;-1.10;97.30;;;;;;4936477;29;20223;-87
2021/12/03 04:24:44;;;;;;;6.80;3.20;;;-1.10;97.30;;;;;;4935317;29;20184;-87
2021/12/03 04:27:10;;;;;;;6.43;3.10;;;-1.10;97.30;;;;;;4935137;29;20430;-87
2021/12/03 04:29:35;;;;;;;11.33;4.07;;;-1.10;97.30;;;;;;4936141;29;20752;-87
2021/12/03 04:32:01;;;;;;;9.83;3.03;;;-1.20;97.30;;;;;;4933723;29;20467;-87
2021/12/03 04:34:27;;;;;;;9.73;3.50;;;-1.20;97.30;;;;;;4933944;29;20172;-87
2021/12/03 04:36:52;;;;;;;7.07;3.23;;;-1.20;97.30;;;;;;4933615;29;20632;-87
2021/12/03 04:39:18;;;;;;;6.30;3.03;;;-1.20;97.30;;;;;;4932590;29;20224;-87
2021/12/03 04:41:44;;;;;;;11.57;4.27;;;-1.20;97.30;;;;;;4947426;28;20209;-87
2021/12/03 04:44:09;;;;;;;4.80;2.73;;;-1.20;97.30;;;;;;4952617;28;20650;-87
2021/12/03 04:46:35;;;;;;;8.60;3.63;;;-1.10;97.30;;;;;;4952156;29;20485;-86
2021/12/03 04:49:01;;;;;;;11.23;3.77;;;-1.10;97.30;;;;;;4954722;29;20179;-87
2021/12/03 04:51:27;;;;;;;6.70;4.40;;;-1.20;97.30;;;;;;4955204;29;20238;-87
2021/12/03 04:53:53;;;;;;;7.30;2.97;;;-1.20;97.30;;;;;;4954111;29;20680;-87
2021/12/03 04:56:18;;;;;;;9.40;3.10;;;-1.10;97.30;;;;;;4954179;29;20423;-87
2021/12/03 04:58:44;;;;;;;7.07;3.47;;;-1.20;97.30;;;;;;4955454;28;20446;-87
2021/12/03 05:01:10;;;;;;;6.40;2.93;;;-1.20;97.30;;;;;;4962742;28;20256;-87
2021/12/03 05:03:37;;;;;;;6.50;3.10;;;-1.20;97.30;;;;;;4969632;28;20224;-87
2021/12/03 05:06:04;;;;;;;6.40;2.87;;;-1.30;97.30;;;;;;4957011;28;20423;-87
2021/12/03 05:08:31;;;;;;;7.63;3.40;;;-1.30;97.30;;;;;;4967025;28;20421;-87
2021/12/03 05:10:58;;;;;;;7.00;4.20;;;-1.30;97.30;;;;;;4963584;28;20461;-86
2021/12/03 05:13:27;;;;;;;7.17;4.13;;;-1.30;97.30;;;;;;4969496;28;20420;-87
2021/12/03 05:15:53;;;;;;;8.20;3.13;;;-1.30;97.30;;;;;;4969913;28;20426;-87
2021/12/03 05:18:21;;;;;;;5.90;3.40;;;-1.30;97.30;;;;;;4963529;28;20779;-86
2021/12/03 05:20:49;;;;;;;5.67;3.50;;;-1.30;97.30;;;;;;4959153;28;20199;-86
2021/12/03 05:23:15;;;;;;;4.13;2.77;;;-1.30;97.30;;;;;;4974763;28;20449;-87
2021/12/03 05:25:41;;;;;;;5.40;2.80;;;-1.30;97.30;;;;;;4957839;28;20435;-87
2021/12/03 05:28:07;;;;;;;6.33;3.40;;;-1.30;97.30;;;;;;4972088;28;20414;-87
2021/12/03 05:30:33;;;;;;;10.77;3.27;;;-1.30;97.30;;;;;;4982170;28;20294;-86
2021/12/03 05:32:59;;;;;;;5.23;3.00;;;-1.30;97.30;;;;;;4960333;28;20448;-86
2021/12/03 05:35:26;;;;;;;5.63;2.70;;;-1.30;97.30;;;;;;4958727;28;21041;-87
2021/12/03 05:37:52;;;;;;;5.30;3.03;;;-1.30;97.30;;;;;;4961341;28;20186;-87
2021/12/03 05:40:18;;;;;;;8.77;3.60;;;-1.30;97.30;;;;;;4961956;28;20442;-86
2021/12/03 05:42:45;;;;;;;5.23;3.07;;;-1.30;97.30;;;;;;4971356;28;20426;-87
2021/12/03 05:45:14;;;;;;;5.47;2.63;;;-1.30;97.30;;;;;;4971436;28;20271;-87
2021/12/03 05:47:40;;;;;;;8.03;4.70;;;-1.30;97.30;;;;;;4965002;28;20467;-87
2021/12/03 05:50:08;;;;;;;4.30;2.47;;;-1.30;97.30;;;;;;4972728;28;20422;-86
2021/12/03 05:52:34;;;;;;;6.90;2.77;;;-1.30;97.30;;;;;;4965577;28;20454;-87
2021/12/03 05:55:00;;;;;;;7.50;2.77;;;-1.30;97.30;;;;;;4954715;28;20513;-87
2021/12/03 05:57:26;;;;;;;7.43;3.20;;;-1.40;97.30;;;;;;4988423;28;20466;-87
2021/12/03 05:59:51;;;;;;;6.33;2.80;;;-1.30;97.30;;;;;;4962599;28;20186;-87
2021/12/03 06:02:17;;;;;;;4.87;2.13;;;-1.30;97.30;;;;;;4959486;28;20249;-88
2021/12/03 06:04:43;;;;;;;6.17;2.37;;;-1.30;97.30;;;;;;4969595;28;20179;-88
2021/12/03 06:07:08;;;;;;;7.03;2.80;;;-1.30;97.30;;;;;;4962272;28;20246;-87
2021/12/03 06:09:34;;;;;;;6.00;3.00;;;-1.30;97.30;;;;;;4966860;28;20175;-87
2021/12/03 06:12:01;;;;;;;7.27;2.73;;;-1.40;97.30;;;;;;4954839;28;20218;-87
2021/12/03 06:14:28;;;;;;;8.87;3.37;;;-1.40;97.30;;;;;;4964951;28;20191;-87
2021/12/03 06:16:54;;;;;;;5.57;3.10;;;-1.40;97.30;;;;;;4959177;28;20479;-87
2021/12/03 06:19:20;;;;;;;5.97;3.23;;;-1.40;97.30;;;;;;4966088;28;21079;-87
2021/12/03 06:21:45;;;;;;;5.23;2.73;;;-1.40;97.30;;;;;;4952991;29;20438;-87
2021/12/03 06:24:11;;;;;;;8.20;3.83;;;-1.40;97.30;;;;;;4953774;28;20445;-87
2021/12/03 06:26:36;;;;;;;6.30;2.90;;;-1.40;97.30;;;;;;4952705;28;20187;-87
2021/12/03 06:29:02;;;;;;;6.03;2.90;;;-1.40;97.30;;;;;;4953170;29;20187;-87
2021/12/03 06:31:28;;;;;;;6.00;3.13;;;-1.40;97.30;;;;;;4953754;28;20206;-85
2021/12/03 06:33:54;;;;;;;16.97;4.07;;;-1.40;97.30;;;;;;4953555;29;20426;-86
2021/12/03 06:36:20;;;;;;;8.30;3.67;;;-1.40;97.30;;;;;;4953928;28;20529;-86
2021/12/03 06:38:45;;;;;;;15.70;3.73;;;-1.30;97.30;;;;;;4952658;29;20266;-87
2021/12/03 06:41:11;;;;;;;10.20;3.50;;;-1.30;97.30;;;;;;4953795;28;20525;-87
2021/12/03 06:43:36;;;;;;;5.50;3.30;;;-1.30;97.30;;;;;;4952614;29;20559;-87
2021/12/03 06:46:02;;;;;;;10.13;3.90;;;-1.30;97.30;;;;;;4953164;29;20171;-87
2021/12/03 06:48:28;;;;;;;5.83;3.40;;;-1.30;97.30;;;;;;4952070;29;20286;-87
2021/12/03 06:50:53;;;;;;;4.27;2.90;;;-1.30;97.30;;;;;;4953349;28;21000;-87
2021/12/03 06:53:27;;;;;;;7.80;3.27;;;-1.30;97.30;;;;;;4954019;28;20172;-87
2021/12/03 06:56:05;;;;;;;9.57;3.63;;;-1.30;97.30;;;;;;4952454;29;20601;-87
2021/12/03 06:58:30;;;;;;;6.60;3.70;;;-1.30;97.30;;;;;;4952391;29;20399;-86
2021/12/03 07:00:56;;;;;;;7.70;3.03;;;-1.30;97.30;;;;;;4952435;29;20506;-86
2021/12/03 07:03:22;;;;;;;6.60;2.90;;;-1.30;97.30;;;;;;4953337;28;20179;-87
2021/12/03 07:05:48;;;;;;;10.20;3.43;;;-1.20;97.30;;;;;;4955865;29;21135;-87
2021/12/03 07:08:14;;;;;;;6.80;3.30;;;-1.30;97.30;;;;;;4956216;29;20419;-87
2021/12/03 07:10:41;;;;;;;7.97;3.40;;;-1.30;97.30;;;;;;4955630;29;21163;-85
2021/12/03 07:13:07;;;;;;;8.70;3.60;;;-1.30;97.30;;;;;;4956172;29;20176;-86
2021/12/03 07:15:34;;;;;;;6.47;3.00;;;-1.30;97.30;;;;;;4956064;29;20929;-86
2021/12/03 07:17:59;;;;;;;6.23;3.33;;;-1.30;97.30;;;;;;4955819;29;20418;-87
2021/12/03 07:20:26;;;;;;;8.77;3.17;;;-1.20;97.30;;;;;;4955969;29;20961;-87
2021/12/03 07:22:52;;;;;;;8.83;4.10;;;-1.20;97.30;;;;;;4956030;29;20222;-87
2021/12/03 07:25:18;;;;;;;3.50;2.30;;;-1.20;97.30;;;;;;4956159;29;20509;-86
2021/12/03 07:27:44;;;;;;;8.00;4.10;;;-1.10;97.30;;;;;;4954323;29;20590;-85
2021/12/03 07:30:11;;;;;;;7.17;3.67;;;-1.10;97.30;;;;;;4956751;28;20179;-87
2021/12/03 07:32:38;;;;;;;6.60;2.67;;;-1.10;97.30;;;;;;4955536;29;20266;-86
2021/12/03 07:35:04;;;;;;;7.40;3.57;;;-1.00;97.30;;;;;;4956466;28;20871;-86
2021/12/03 07:37:30;;;;;;;5.57;3.60;;;-1.00;97.30;;;;;;4955146;29;20426;-85
2021/12/03 07:39:58;;;;;;;6.33;3.23;;;-1.00;97.30;;;;;;4955615;28;20921;-86
2021/12/03 07:42:24;;;;;;;4.97;3.10;;;-0.90;97.30;;;;;;4955542;29;20241;-87
2021/12/03 07:44:49;;;;;;;6.93;2.83;;;-0.80;97.30;;;;;;4971355;28;20867;-86
2021/12/03 07:47:15;;;;;;;8.57;3.20;;;-0.80;97.30;;;;;;4955061;28;20718;-86
2021/12/03 07:49:41;;;;;;;5.37;2.80;;;-0.70;97.30;;;;;;4956301;29;20217;-87
2021/12/03 07:52:09;;;;;;;7.63;2.60;;;-0.60;97.30;;;;;;4970798;28;20246;-86
2021/12/03 07:54:35;;;;;;;8.53;2.80;;;-0.60;97.30;;;;;;4971112;28;20423;-86
2021/12/03 07:57:00;;;;;;;6.40;2.97;;;-0.50;97.30;;;;;;4970179;28;20521;-87
2021/12/03 07:59:26;;;;;;;6.20;2.87;;;-0.40;97.30;;;;;;4967293;28;20178;-87
2021/12/03 08:01:51;;;;;;;6.10;3.03;;;-0.40;97.30;;;;;;4990641;28;20727;-87
2021/12/03 08:04:16;;;;;;;4.00;2.30;;;-0.30;97.30;;;;;;4975399;28;20183;-86
2021/12/03 08:06:44;;;;;;;5.90;2.70;;;-0.20;97.30;;;;;;4975277;28;20270;-87
2021/12/03 08:09:10;;;;;;;3.30;2.00;;;-0.20;97.30;;;;;;4955457;28;20209;-87
2021/12/03 08:11:37;;;;;;;4.40;2.10;;;-0.10;97.30;;;;;;4954655;29;20454;-87
2021/12/03 08:14:03;;;;;;;7.13;2.50;;;0.00;97.30;;;;;;4954856;28;20410;-87
2021/12/03 08:16:29;;;;;;;11.47;2.73;;;0.00;97.30;;;;;;4953902;29;20414;-86
2021/12/03 08:18:54;;;;;;;5.93;2.20;;;0.10;97.30;;;;;;4953736;29;20179;-86
2021/12/03 08:21:20;;;;;;;4.77;2.80;;;0.20;97.30;;;;;;4949807;28;20358;-87
2021/12/03 08:23:47;;;;;;;4.40;2.20;;;0.20;97.30;;;;;;4954469;29;20187;-87
2021/12/03 08:26:13;;;;;;;4.47;2.23;;;0.30;97.30;;;;;;4970772;28;20190;-87
2021/12/03 08:28:39;;;;;;;7.90;3.00;;;0.40;97.30;;;;;;4969721;28;20435;-87
2021/12/03 08:31:04;;;;;;;9.57;2.03;;;0.40;97.30;;;;;;4954398;28;20207;-87
2021/12/03 08:33:30;;;;;;;4.47;1.80;;;0.50;97.30;;;;;;4955362;28;20198;-86
2021/12/03 08:35:55;;;;;;;2.40;1.63;;;0.40;97.30;;;;;;4970644;28;20183;-87
2021/12/03 08:38:21;;;;;;;2.13;1.50;;;0.40;97.30;;;;;;4969023;28;20225;-87
2021/12/03 08:40:46;;;;;;;6.73;2.00;;;0.50;97.30;;;;;;4954162;28;20214;-87
2021/12/03 08:43:12;;;;;;;3.73;1.90;;;0.50;97.30;;;;;;4954216;29;20685;-86
2021/12/03 08:45:38;;;;;;;5.43;1.90;;;0.50;97.30;;;;;;4954460;29;20566;-87
2021/12/03 08:48:05;;;;;;;8.63;3.60;;;0.60;97.30;;;;;;4954485;28;20350;-87
2021/12/03 08:50:48;;;;;;;2.60;1.90;;;0.60;97.30;;;;;;4954074;29;20475;-86
2021/12/03 08:54:48;;;;;;;2.57;1.40;;;0.70;97.30;;;;;;4953572;29;20421;-86
2021/12/03 08:56:02;;;;;;;3.10;1.93;;;0.80;97.30;;;;;;4955401;29;20411;-86
2021/12/03 08:58:28;;;;;;;3.53;1.80;;;0.80;97.30;;;;;;4953440;29;20521;-87
2021/12/03 09:00:54;;;;;;;5.93;2.10;;;0.90;97.30;;;;;;4954435;29;20217;-86
2021/12/03 09:03:19;;;;;;;2.57;1.70;;;0.90;97.30;;;;;;4954380;29;20246;-87
2021/12/03 09:05:46;;;;;;;2.40;2.13;;;0.90;97.30;;;;;;4955565;29;20415;-85
2021/12/03 09:08:12;;;;;;;3.70;2.40;;;0.90;97.30;;;;;;4953564;29;20186;-87
2021/12/03 09:10:39;;;;;;;5.33;1.87;;;1.00;97.30;;;;;;4955099;29;20438;-86
2021/12/03 09:13:05;;;;;;;4.90;2.00;;;1.00;97.30;;;;;;4946227;28;20180;-87
2021/12/03 09:15:54;;;;;;;4.13;1.90;;;1.00;97.30;;;;;;4936377;29;20411;-87
2021/12/03 09:18:34;;;;;;;10.73;2.10;;;1.10;97.30;;;;;;4942860;29;20414;-87
2021/12/03 09:21:05;;;;;;;1.60;1.60;;;1.10;97.30;;;;;;4954008;29;20970;-86
2021/12/03 09:23:52;;;;;;;4.07;2.17;;;1.10;97.30;;;;;;4954151;29;20407;-87
2021/12/03 09:26:18;;;;;;;4.13;2.23;;;1.20;97.30;;;;;;4955091;28;20853;-86
2021/12/03 09:28:52;;;;;;;4.33;2.20;;;1.20;97.30;;;;;;4992724;23;20911;-85
2021/12/03 09:31:18;;;;;;;4.40;2.10;;;1.30;97.30;;;;;;5015151;28;20982;-83
2021/12/03 09:33:49;;;;;;;4.17;2.60;;;1.30;97.30;;;;;;5013503;28;20433;-85
2021/12/03 09:36:14;;;;;;;2.47;2.03;;;1.30;97.30;;;;;;5006144;28;20177;-85
2021/12/03 09:38:40;;;;;;;9.23;2.10;;;1.30;97.30;;;;;;5009607;28;20457;-86
2021/12/03 09:41:16;;;;;;;4.40;2.33;;;1.30;97.30;;;;;;4998043;28;20200;-86
2021/12/03 09:43:46;;;;;;;2.50;2.03;;;1.30;97.30;;;;;;4994395;28;20185;-84
2021/12/03 09:46:18;;;;;;;4.03;1.83;;;1.40;97.30;;;;;;4982205;28;20435;-86
2021/12/03 09:48:57;;;;;;;2.33;2.17;;;1.30;97.30;;;;;;4991499;28;20457;-84
2021/12/03 09:51:26;;;;;;;3.30;1.93;;;1.40;97.30;;;;;;4996499;28;20472;-86
2021/12/03 09:56:36;;;;;;;7.27;3.17;;;1.50;97.30;;;;;;4980779;28;20418;-84
2021/12/03 10:01:55;;;;;;;5.13;2.10;;;1.60;97.30;;;;;;4994980;28;20509;-84
2021/12/03 10:15:18;;;;;;;4.63;2.00;;;1.60;97.30;;;;;;4995171;28;20589;-85
2021/12/03 10:17:51;;;;;;;6.70;3.77;;;1.50;97.30;;;;;;4979651;28;21359;-82
2021/12/03 10:29:11;;;;;;;6.43;3.27;;;1.80;97.30;;;;;;4995429;28;20467;-85
2021/12/03 10:32:16;;;;;;;4.20;3.13;;;1.90;97.30;;;;;;4995122;28;20457;-84
2021/12/03 10:43:31;;;;;;;9.37;3.63;;;2.10;97.30;;;;;;5001582;28;20401;-85
2021/12/03 10:46:19;;;;;;;5.17;2.80;;;2.20;97.30;;;;;;5000982;28;20428;-84
2021/12/03 10:48:58;;;;;;;7.20;1.80;;;2.30;97.30;;;;;;5001113;28;20439;-85
2021/12/03 10:51:40;;;;;;;5.90;2.60;;;2.40;97.20;;;;;;5001232;28;20478;-87
2021/12/03 10:54:30;;;;;;;4.80;2.83;;;2.40;96.30;;;;;;4999394;28;21035;-85
2021/12/03 11:06:01;;;;;;;4.50;2.67;;;2.80;95.80;;;;;;5002162;28;20424;-86
2021/12/03 11:12:10;;;;;;;6.83;2.73;;;3.00;95.40;;;;;;5002579;28;20468;-85
2021/12/03 11:18:05;;;;;;;8.60;2.87;;;3.40;95.20;;;;;;5001468;28;20412;-85
2021/12/03 11:21:32;;;;;;;4.20;2.93;;;3.30;94.60;;;;;;4998549;28;20409;-86
2021/12/03 11:27:08;;;;;;;4.80;2.80;;;3.30;95.00;;;;;;4982727;28;20424;-87
2021/12/03 13:12:45;;;;;;;4.70;3.40;;;3.90;93.40;;;;;;4999522;28;20472;-84
2021/12/03 13:18:31;;;;;;;4.23;2.80;;;3.90;94.30;;;;;;4990080;28;20500;-84
2021/12/03 13:23:56;;;;;;;5.77;2.60;;;3.70;94.50;;;;;;4998620;28;20432;-84
2021/12/03 13:32:37;;;;;;;7.73;2.60;;;3.70;95.10;;;;;;5003865;28;20464;-84
2021/12/03 13:56:09;;;;;;;5.60;2.23;;;4.30;93.80;;;;;;5000083;28;20420;-84
2021/12/03 13:56:37;;;;;;;5.40;3.07;;;4.10;94.30;;;;;;4996561;28;20523;-84
2021/12/03 14:18:37;;;;;;;6.80;3.10;;;3.10;97.30;;;;;;4982795;28;20424;-84
2021/12/03 14:41:10;;;;;;;6.93;4.27;;;2.90;97.30;;;;;;4992545;28;20418;-85
2021/12/03 14:43:46;;;;;;;3.67;2.40;;;2.90;97.30;;;;;;4988493;28;20860;-85
2021/12/03 14:46:24;;;;;;;4.53;3.10;;;2.80;97.30;;;;;;5009081;28;20917;-86
2021/12/03 14:49:27;;;;;;;7.17;3.77;;;2.80;97.30;;;;;;5012461;28;20451;-86
2021/12/03 14:57:21;;;;;;;7.40;2.70;;;2.80;97.30;;;;;;5008120;28;20417;-85
2021/12/03 15:08:57;;;;;;;8.40;3.50;;;2.70;97.30;;;;;;5004034;28;20491;-82
2021/12/03 15:19:48;;;;;;;5.40;3.97;;;2.70;97.30;;;;;;4999637;28;20823;-86
2021/12/03 15:27:38;;;;;;;10.50;3.37;;;2.70;97.30;;;;;;4998866;28;20689;-84
2021/12/03 15:32:41;;;;;;;8.93;4.47;;;2.70;97.30;;;;;;5003028;28;20468;-86
2021/12/03 15:51:57;;;;;;;7.50;4.50;;;2.70;97.30;;;;;;5000914;28;20436;-85
2021/12/03 15:56:41;;;;;;;17.33;3.70;;;2.60;97.30;;;;;;4997312;28;20794;-85
2021/12/03 16:04:41;;;;;;;5.13;3.40;;;2.50;97.30;;;;;;4999761;28;20478;-85
2021/12/03 16:07:50;;;;;;;7.40;4.00;;;2.50;97.30;;;;;;4997946;28;20424;-81
2021/12/03 16:10:18;;;;;;;6.83;4.40;;;2.40;97.30;;;;;;4999099;28;20449;-85
2021/12/03 16:12:53;;;;;;;7.47;3.93;;;2.40;97.30;;;;;;4998656;28;20456;-82
2021/12/03 16:15:31;;;;;;;10.10;4.03;;;2.40;97.30;;;;;;4995595;28;20424;-84
2021/12/03 16:25:53;;;;;;;10.07;3.93;;;2.40;97.30;;;;;;4982967;28;20558;-85
2021/12/03 16:45:11;;;;;;;6.10;4.30;;;2.10;97.30;;;;;;5014753;28;20447;-85
2021/12/03 16:47:57;;;;;;;10.40;4.73;;;2.10;97.30;;;;;;5010993;28;21089;-85
2021/12/03 16:52:54;;;;;;;6.83;3.93;;;2.00;97.30;;;;;;4994564;28;20618;-84
2021/12/03 16:55:20;;;;;;;6.20;4.13;;;2.00;97.30;;;;;;4993765;28;20927;-85
2021/12/03 16:57:49;;;;;;;13.73;5.23;;;2.00;97.30;;;;;;4993513;28;20190;-86
2021/12/03 17:03:03;;;;;;;12.60;4.53;;;2.00;97.30;;;;;;4995322;28;20409;-85
2021/12/03 17:10:52;;;;;;;8.73;4.37;;;2.00;97.30;;;;;;4994876;28;20456;-85
2021/12/03 17:16:20;;;;;;;11.70;3.57;;;2.00;97.30;;;;;;4994558;28;20405;-85
2021/12/03 17:27:28;;;;;;;9.10;4.50;;;2.10;97.30;;;;;;4994811;28;20405;-84
2021/12/03 17:29:59;;;;;;;7.10;4.03;;;2.10;97.30;;;;;;4993970;28;20521;-85
2021/12/03 17:49:03;;;;;;;5.17;3.30;;;2.10;97.30;;;;;;4993844;28;20439;-84
2021/12/03 17:51:42;;;;;;;9.77;4.30;;;2.10;97.30;;;;;;4992370;28;20495;-84
2021/12/03 17:56:49;;;;;;;4.90;2.37;;;2.10;97.30;;;;;;4993665;28;20401;-83
2021/12/03 18:01:54;;;;;;;5.43;3.50;;;2.10;97.30;;;;;;4994123;28;20881;-84
2021/12/03 18:04:33;;;;;;;10.03;5.10;;;2.10;97.30;;;;;;4992525;28;20781;-84
2021/12/03 18:07:22;;;;;;;4.60;2.73;;;2.00;97.30;;;;;;4994081;28;20485;-84
2021/12/03 18:13:04;;;;;;;8.73;3.93;;;2.00;97.30;;;;;;4993916;28;20883;-85
2021/12/03 18:18:33;;;;;;;4.90;2.70;;;2.00;97.30;;;;;;4993986;28;20463;-85
2021/12/03 18:48:35;;;;;;;3.90;2.60;;;2.00;97.30;;;;;;4992836;28;20431;-85
2021/12/03 18:53:48;;;;;;;7.23;3.10;;;2.00;97.30;;;;;;4993147;28;20511;-85
2021/12/03 18:56:18;;;;;;;9.00;3.53;;;2.00;97.30;;;;;;4991780;28;20401;-85
2021/12/03 18:58:44;;;;;;;7.87;4.00;;;2.00;97.30;;;;;;4992106;28;20495;-84
2021/12/03 19:01:12;;;;;;;6.00;3.10;;;2.00;97.30;;;;;;5011386;28;20474;-84
2021/12/03 19:06:28;;;;;;;6.47;3.20;;;2.00;97.30;;;;;;4991508;28;20495;-84
2021/12/03 19:09:02;;;;;;;5.27;3.23;;;2.00;97.30;;;;;;4993404;28;20974;-85
2021/12/03 19:11:33;;;;;;;11.07;3.50;;;2.00;97.30;;;;;;4991599;28;20562;-84
2021/12/03 19:13:59;;;;;;;6.90;3.50;;;2.00;97.30;;;;;;4982158;28;20905;-84
2021/12/03 19:16:26;;;;;;;10.50;3.23;;;2.00;97.30;;;;;;4996282;28;20495;-81
2021/12/03 19:18:54;;;;;;;3.67;3.13;;;2.00;97.30;;;;;;5010103;28;20258;-85
2021/12/03 19:21:26;;;;;;;7.90;3.37;;;2.00;97.30;;;;;;5011241;28;20940;-85
2021/12/03 19:23:55;;;;;;;8.17;3.60;;;2.00;97.30;;;;;;5008236;28;20416;-85